sensor_id;sensor_type;location;lat;lon;timestamp;temperature;humidity
37658;DHT22;23500;53.268;8.308;2022-08-18T00:01:12;23.90;75.50
37658;DHT22;23500;53.268;8.308;2022-08-18T00:03:38;23.90;75.40
37658;DHT22;23500;53.268;8.308;2022-08-18T00:06:06;23.90;75.30
37658;DHT22;23500;53.268;8.308;2022-08-18T00:08:32;23.90;75.30
37658;DHT22;23500;53.268;8.308;2022-08-18T00:10:58;23.90;75.30
37658;DHT22;23500;53.268;8.308;2022-08-18T00:13:24;23.90;75.20
37658;DHT22;23500;53.268;8.308;2022-08-18T00:15:50;23.90;75.20
37658;DHT22;23500;53.268;8.308;2022-08-18T00:18:15;23.90;75.20
37658;DHT22;23500;53.268;8.308;2022-08-18T00:20:41;23.90;75.20
37658;DHT22;23500;53.268;8.308;2022-08-18T00:23:07;23.80;74.90
37658;DHT22;23500;53.268;8.308;2022-08-18T00:25:33;23.80;74.80
37658;DHT22;23500;53.268;8.308;2022-08-18T00:28:00;23.80;74.90
37658;DHT22;23500;53.268;8.308;2022-08-18T00:30:26;23.90;74.90
37658;DHT22;23500;53.268;8.308;2022-08-18T00:32:54;23.80;74.70
37658;DHT22;23500;53.268;8.308;2022-08-18T00:35:35;23.80;74.90
37658;DHT22;23500;53.268;8.308;2022-08-18T00:38:03;23.80;74.80
37658;DHT22;23500;53.268;8.308;2022-08-18T00:40:41;23.80;74.90
37658;DHT22;23500;53.268;8.308;2022-08-18T00:43:12;23.80;74.90
37658;DHT22;23500;53.268;8.308;2022-08-18T00:45:40;23.70;74.80
37658;DHT22;23500;53.268;8.308;2022-08-18T00:48:08;23.70;75.00
37658;DHT22;23500;53.268;8.308;2022-08-18T00:50:51;23.70;75.00
37658;DHT22;23500;53.268;8.308;2022-08-18T00:53:29;23.70;74.30
37658;DHT22;23500;53.268;8.308;2022-08-18T00:55:59;23.70;74.30
37658;DHT22;23500;53.268;8.308;2022-08-18T00:58:36;23.70;74.60
37658;DHT22;23500;53.268;8.308;2022-08-18T01:01:05;23.70;74.60
37658;DHT22;23500;53.268;8.308;2022-08-18T01:03:32;23.70;74.80
37658;DHT22;23500;53.268;8.308;2022-08-18T01:06:08;23.60;75.00
37658;DHT22;23500;53.268;8.308;2022-08-18T01:08:36;23.70;75.10
37658;DHT22;23500;53.268;8.308;2022-08-18T01:11:04;23.60;74.90
37658;DHT22;23500;53.268;8.308;2022-08-18T01:13:31;23.70;75.10
37658;DHT22;23500;53.268;8.308;2022-08-18T01:15:57;23.60;75.30
37658;DHT22;23500;53.268;8.308;2022-08-18T01:18:23;23.60;75.30
37658;DHT22;23500;53.268;8.308;2022-08-18T01:21:15;23.60;75.50
37658;DHT22;23500;53.268;8.308;2022-08-18T01:24:03;23.60;75.70
37658;DHT22;23500;53.268;8.308;2022-08-18T01:26:30;23.60;75.90
37658;DHT22;23500;53.268;8.308;2022-08-18T01:29:04;23.60;76.10
37658;DHT22;23500;53.268;8.308;2022-08-18T01:31:34;23.60;76.20
37658;DHT22;23500;53.268;8.308;2022-08-18T01:34:02;23.60;76.20
37658;DHT22;23500;53.268;8.308;2022-08-18T01:36:29;23.60;76.30
37658;DHT22;23500;53.268;8.308;2022-08-18T01:38:55;23.60;76.40
37658;DHT22;23500;53.268;8.308;2022-08-18T01:41:22;23.60;76.30
37658;DHT22;23500;53.268;8.308;2022-08-18T01:43:48;23.60;76.30
37658;DHT22;23500;53.268;8.308;2022-08-18T01:46:19;23.60;76.30
37658;DHT22;23500;53.268;8.308;2022-08-18T01:48:46;23.60;76.40
37658;DHT22;23500;53.268;8.308;2022-08-18T01:51:14;23.60;76.40
37658;DHT22;23500;53.268;8.308;2022-08-18T01:53:40;23.60;76.40
37658;DHT22;23500;53.268;8.308;2022-08-18T01:56:06;23.50;76.50
37658;DHT22;23500;53.268;8.308;2022-08-18T01:58:33;23.60;76.60
37658;DHT22;23500;53.268;8.308;2022-08-18T02:01:00;23.50;76.50
37658;DHT22;23500;53.268;8.308;2022-08-18T02:03:33;23.50;76.50
37658;DHT22;23500;53.268;8.308;2022-08-18T02:06:03;23.60;76.70
37658;DHT22;23500;53.268;8.308;2022-08-18T02:08:29;23.60;76.50
37658;DHT22;23500;53.268;8.308;2022-08-18T02:10:55;23.60;76.70
37658;DHT22;23500;53.268;8.308;2022-08-18T02:13:23;23.60;76.60
37658;DHT22;23500;53.268;8.308;2022-08-18T02:15:49;23.50;76.60
37658;DHT22;23500;53.268;8.308;2022-08-18T02:18:18;23.50;76.70
37658;DHT22;23500;53.268;8.308;2022-08-18T02:20:44;23.60;76.80
37658;DHT22;23500;53.268;8.308;2022-08-18T02:23:10;23.50;76.70
37658;DHT22;23500;53.268;8.308;2022-08-18T02:25:37;23.60;76.90
37658;DHT22;23500;53.268;8.308;2022-08-18T02:28:04;23.50;76.80
37658;DHT22;23500;53.268;8.308;2022-08-18T02:30:30;23.50;77.00
37658;DHT22;23500;53.268;8.308;2022-08-18T02:32:58;23.50;76.90
37658;DHT22;23500;53.268;8.308;2022-08-18T02:35:24;23.50;77.00
37658;DHT22;23500;53.268;8.308;2022-08-18T02:37:50;23.50;77.00
37658;DHT22;23500;53.268;8.308;2022-08-18T02:40:16;23.50;77.00
37658;DHT22;23500;53.268;8.308;2022-08-18T02:42:44;23.50;77.00
37658;DHT22;23500;53.268;8.308;2022-08-18T02:45:10;23.50;77.00
37658;DHT22;23500;53.268;8.308;2022-08-18T02:47:38;23.50;76.90
37658;DHT22;23500;53.268;8.308;2022-08-18T02:50:05;23.50;77.00
37658;DHT22;23500;53.268;8.308;2022-08-18T02:52:31;23.50;76.90
37658;DHT22;23500;53.268;8.308;2022-08-18T02:55:00;23.50;77.00
37658;DHT22;23500;53.268;8.308;2022-08-18T02:57:27;23.50;77.00
37658;DHT22;23500;53.268;8.308;2022-08-18T02:59:53;23.50;77.00
37658;DHT22;23500;53.268;8.308;2022-08-18T03:02:19;23.50;77.00
37658;DHT22;23500;53.268;8.308;2022-08-18T03:04:45;23.50;77.00
37658;DHT22;23500;53.268;8.308;2022-08-18T03:07:12;23.50;76.80
37658;DHT22;23500;53.268;8.308;2022-08-18T03:09:40;23.50;76.90
37658;DHT22;23500;53.268;8.308;2022-08-18T03:12:07;23.50;76.90
37658;DHT22;23500;53.268;8.308;2022-08-18T03:14:35;23.50;76.80
37658;DHT22;23500;53.268;8.308;2022-08-18T03:17:04;23.50;76.80
37658;DHT22;23500;53.268;8.308;2022-08-18T03:19:30;23.50;76.80
37658;DHT22;23500;53.268;8.308;2022-08-18T03:21:57;23.50;76.60
37658;DHT22;23500;53.268;8.308;2022-08-18T03:24:24;23.50;76.50
37658;DHT22;23500;53.268;8.308;2022-08-18T03:26:52;23.50;77.30
37658;DHT22;23500;53.268;8.308;2022-08-18T03:29:19;23.50;76.60
37658;DHT22;23500;53.268;8.308;2022-08-18T03:31:44;23.50;76.70
37658;DHT22;23500;53.268;8.308;2022-08-18T03:34:17;23.40;76.70
37658;DHT22;23500;53.268;8.308;2022-08-18T03:36:44;23.50;76.80
37658;DHT22;23500;53.268;8.308;2022-08-18T03:39:11;23.50;76.80
37658;DHT22;23500;53.268;8.308;2022-08-18T03:41:42;23.40;76.80
37658;DHT22;23500;53.268;8.308;2022-08-18T03:44:09;23.40;76.90
37658;DHT22;23500;53.268;8.308;2022-08-18T03:46:35;23.40;76.90
37658;DHT22;23500;53.268;8.308;2022-08-18T03:49:01;23.40;77.00
37658;DHT22;23500;53.268;8.308;2022-08-18T03:51:30;23.40;76.90
37658;DHT22;23500;53.268;8.308;2022-08-18T03:53:58;23.40;76.70
37658;DHT22;23500;53.268;8.308;2022-08-18T03:56:35;23.40;76.70
37658;DHT22;23500;53.268;8.308;2022-08-18T03:59:24;23.40;76.70
37658;DHT22;23500;53.268;8.308;2022-08-18T04:01:51;23.40;76.70
37658;DHT22;23500;53.268;8.308;2022-08-18T04:04:22;23.40;77.00
37658;DHT22;23500;53.268;8.308;2022-08-18T04:06:57;23.40;77.00
37658;DHT22;23500;53.268;8.308;2022-08-18T04:09:26;23.40;77.20
37658;DHT22;23500;53.268;8.308;2022-08-18T04:11:52;23.40;77.20
37658;DHT22;23500;53.268;8.308;2022-08-18T04:14:21;23.40;77.40
37658;DHT22;23500;53.268;8.308;2022-08-18T04:16:49;23.40;77.60
37658;DHT22;23500;53.268;8.308;2022-08-18T04:19:15;23.40;77.60
37658;DHT22;23500;53.268;8.308;2022-08-18T04:21:43;23.40;77.90
37658;DHT22;23500;53.268;8.308;2022-08-18T04:24:11;23.40;77.70
37658;DHT22;23500;53.268;8.308;2022-08-18T04:26:44;23.40;77.90
37658;DHT22;23500;53.268;8.308;2022-08-18T04:29:11;23.40;77.90
37658;DHT22;23500;53.268;8.308;2022-08-18T04:31:37;23.40;78.10
37658;DHT22;23500;53.268;8.308;2022-08-18T04:34:04;23.40;78.10
37658;DHT22;23500;53.268;8.308;2022-08-18T04:36:31;23.40;78.10
37658;DHT22;23500;53.268;8.308;2022-08-18T04:39:03;23.40;78.20
37658;DHT22;23500;53.268;8.308;2022-08-18T04:41:29;23.40;78.20
37658;DHT22;23500;53.268;8.308;2022-08-18T04:44:00;23.20;80.70
37658;DHT22;23500;53.268;8.308;2022-08-18T04:46:27;23.10;81.80
37658;DHT22;23500;53.268;8.308;2022-08-18T04:48:54;22.90;82.60
37658;DHT22;23500;53.268;8.308;2022-08-18T04:51:28;22.70;83.30
37658;DHT22;23500;53.268;8.308;2022-08-18T04:53:55;22.60;84.10
37658;DHT22;23500;53.268;8.308;2022-08-18T04:56:27;22.40;84.50
37658;DHT22;23500;53.268;8.308;2022-08-18T04:58:53;22.30;85.40
37658;DHT22;23500;53.268;8.308;2022-08-18T05:01:22;22.20;86.70
37658;DHT22;23500;53.268;8.308;2022-08-18T05:03:50;22.10;86.70
37658;DHT22;23500;53.268;8.308;2022-08-18T05:06:17;22.00;87.20
37658;DHT22;23500;53.268;8.308;2022-08-18T05:08:43;22.00;87.60
37658;DHT22;23500;53.268;8.308;2022-08-18T05:11:08;21.90;87.90
37658;DHT22;23500;53.268;8.308;2022-08-18T05:13:34;22.00;87.00
37658;DHT22;23500;53.268;8.308;2022-08-18T05:16:00;22.10;86.40
37658;DHT22;23500;53.268;8.308;2022-08-18T05:18:29;22.20;85.80
37658;DHT22;23500;53.268;8.308;2022-08-18T05:20:56;22.30;85.30
37658;DHT22;23500;53.268;8.308;2022-08-18T05:23:22;22.40;84.80
37658;DHT22;23500;53.268;8.308;2022-08-18T05:25:48;22.50;84.70
37658;DHT22;23500;53.268;8.308;2022-08-18T05:28:15;22.50;84.50
37658;DHT22;23500;53.268;8.308;2022-08-18T05:30:41;22.50;84.00
37658;DHT22;23500;53.268;8.308;2022-08-18T05:33:08;22.60;83.40
37658;DHT22;23500;53.268;8.308;2022-08-18T05:35:42;22.70;83.00
37658;DHT22;23500;53.268;8.308;2022-08-18T05:41:05;22.70;82.20
37658;DHT22;23500;53.268;8.308;2022-08-18T05:43:32;22.80;82.10
37658;DHT22;23500;53.268;8.308;2022-08-18T05:45:59;22.80;82.10
37658;DHT22;23500;53.268;8.308;2022-08-18T05:48:26;22.90;82.00
37658;DHT22;23500;53.268;8.308;2022-08-18T05:50:53;22.90;81.70
37658;DHT22;23500;53.268;8.308;2022-08-18T05:53:19;22.90;81.40
37658;DHT22;23500;53.268;8.308;2022-08-18T05:56:05;23.00;81.20
37658;DHT22;23500;53.268;8.308;2022-08-18T05:58:52;23.00;80.90
37658;DHT22;23500;53.268;8.308;2022-08-18T06:01:33;23.00;80.70
37658;DHT22;23500;53.268;8.308;2022-08-18T06:04:12;23.10;80.50
37658;DHT22;23500;53.268;8.308;2022-08-18T06:06:41;23.10;80.40
37658;DHT22;23500;53.268;8.308;2022-08-18T06:09:27;23.10;80.10
37658;DHT22;23500;53.268;8.308;2022-08-18T06:14:47;23.20;79.70
37658;DHT22;23500;53.268;8.308;2022-08-18T06:17:38;23.20;79.60
37658;DHT22;23500;53.268;8.308;2022-08-18T06:23:28;23.30;79.20
37658;DHT22;23500;53.268;8.308;2022-08-18T06:26:17;23.30;79.00
37658;DHT22;23500;53.268;8.308;2022-08-18T06:28:58;23.30;78.90
37658;DHT22;23500;53.268;8.308;2022-08-18T06:31:31;23.30;78.80
37658;DHT22;23500;53.268;8.308;2022-08-18T06:37:17;23.40;78.60
37658;DHT22;23500;53.268;8.308;2022-08-18T06:39:49;23.40;78.50
37658;DHT22;23500;53.268;8.308;2022-08-18T06:42:20;23.40;78.30
37658;DHT22;23500;53.268;8.308;2022-08-18T06:44:54;23.40;78.20
37658;DHT22;23500;53.268;8.308;2022-08-18T06:47:44;23.40;78.20
37658;DHT22;23500;53.268;8.308;2022-08-18T06:50:25;23.40;78.00
37658;DHT22;23500;53.268;8.308;2022-08-18T06:52:59;23.40;78.00
37658;DHT22;23500;53.268;8.308;2022-08-18T06:55:36;23.40;78.00
37658;DHT22;23500;53.268;8.308;2022-08-18T06:58:26;23.40;77.90
37658;DHT22;23500;53.268;8.308;2022-08-18T07:03:22;23.40;77.80
37658;DHT22;23500;53.268;8.308;2022-08-18T07:08:35;23.40;77.60
37658;DHT22;23500;53.268;8.308;2022-08-18T07:13:40;23.50;77.60
37658;DHT22;23500;53.268;8.308;2022-08-18T07:18:43;23.50;77.50
37658;DHT22;23500;53.268;8.308;2022-08-18T07:21:30;23.50;77.50
37658;DHT22;23500;53.268;8.308;2022-08-18T07:29:26;23.50;77.50
37658;DHT22;23500;53.268;8.308;2022-08-18T07:31:54;23.50;77.40
37658;DHT22;23500;53.268;8.308;2022-08-18T07:34:24;23.50;77.50
37658;DHT22;23500;53.268;8.308;2022-08-18T07:36:52;23.50;77.30
37658;DHT22;23500;53.268;8.308;2022-08-18T07:39:22;23.50;77.20
37658;DHT22;23500;53.268;8.308;2022-08-18T07:47:17;23.50;77.90
37658;DHT22;23500;53.268;8.308;2022-08-18T07:49:45;23.50;77.10
37658;DHT22;23500;53.268;8.308;2022-08-18T07:52:21;23.50;77.10
37658;DHT22;23500;53.268;8.308;2022-08-18T08:03:20;23.50;77.00
37658;DHT22;23500;53.268;8.308;2022-08-18T08:05:57;23.50;76.90
37658;DHT22;23500;53.268;8.308;2022-08-18T08:08:36;23.50;76.90
37658;DHT22;23500;53.268;8.308;2022-08-18T08:16:48;23.50;76.90
37658;DHT22;23500;53.268;8.308;2022-08-18T08:22:15;23.50;76.90
37658;DHT22;23500;53.268;8.308;2022-08-18T08:30:10;23.50;76.80
37658;DHT22;23500;53.268;8.308;2022-08-18T08:35:18;23.60;76.70
37658;DHT22;23500;53.268;8.308;2022-08-18T08:37:48;23.60;76.70
37658;DHT22;23500;53.268;8.308;2022-08-18T08:40:20;23.60;76.60
37658;DHT22;23500;53.268;8.308;2022-08-18T08:43:03;23.60;76.40
37658;DHT22;23500;53.268;8.308;2022-08-18T08:45:38;23.70;76.50
37658;DHT22;23500;53.268;8.308;2022-08-18T08:50:56;23.70;76.40
37658;DHT22;23500;53.268;8.308;2022-08-18T08:53:37;23.70;76.50
37658;DHT22;23500;53.268;8.308;2022-08-18T08:56:09;23.70;76.40
37658;DHT22;23500;53.268;8.308;2022-08-18T08:58:43;23.70;76.40
37658;DHT22;23500;53.268;8.308;2022-08-18T09:01:42;23.60;76.30
37658;DHT22;23500;53.268;8.308;2022-08-18T09:12:39;23.70;76.30
37658;DHT22;23500;53.268;8.308;2022-08-18T09:18:06;23.70;76.20
37658;DHT22;23500;53.268;8.308;2022-08-18T09:24:08;23.70;76.10
37658;DHT22;23500;53.268;8.308;2022-08-18T09:29:25;23.70;76.00
37658;DHT22;23500;53.268;8.308;2022-08-18T09:37:26;23.70;75.90
37658;DHT22;23500;53.268;8.308;2022-08-18T09:40:05;23.70;75.80
37658;DHT22;23500;53.268;8.308;2022-08-18T09:50:55;23.80;75.60
37658;DHT22;23500;53.268;8.308;2022-08-18T09:53:35;23.80;75.60
37658;DHT22;23500;53.268;8.308;2022-08-18T09:56:03;23.80;75.60
37658;DHT22;23500;53.268;8.308;2022-08-18T09:58:56;23.80;75.60
37658;DHT22;23500;53.268;8.308;2022-08-18T10:06:46;23.80;75.60
37658;DHT22;23500;53.268;8.308;2022-08-18T10:09:30;23.80;75.50
37658;DHT22;23500;53.268;8.308;2022-08-18T10:12:20;23.80;75.50
37658;DHT22;23500;53.268;8.308;2022-08-18T10:15:17;23.80;75.50
37658;DHT22;23500;53.268;8.308;2022-08-18T10:17:54;23.80;75.40
37658;DHT22;23500;53.268;8.308;2022-08-18T10:22:59;23.80;75.50
37658;DHT22;23500;53.268;8.308;2022-08-18T10:25:42;23.80;75.50
37658;DHT22;23500;53.268;8.308;2022-08-18T10:31:14;23.80;75.50
37658;DHT22;23500;53.268;8.308;2022-08-18T10:36:40;23.80;75.50
37658;DHT22;23500;53.268;8.308;2022-08-18T10:39:21;23.80;75.40
37658;DHT22;23500;53.268;8.308;2022-08-18T10:41:55;23.80;75.40
37658;DHT22;23500;53.268;8.308;2022-08-18T10:44:22;23.80;75.40
37658;DHT22;23500;53.268;8.308;2022-08-18T10:46:49;23.80;75.30
37658;DHT22;23500;53.268;8.308;2022-08-18T10:49:24;23.80;75.30
37658;DHT22;23500;53.268;8.308;2022-08-18T10:51:52;23.80;75.20
37658;DHT22;23500;53.268;8.308;2022-08-18T11:00:05;23.80;75.10
37658;DHT22;23500;53.268;8.308;2022-08-18T11:05:25;23.80;75.10
37658;DHT22;23500;53.268;8.308;2022-08-18T11:08:01;23.80;75.10
37658;DHT22;23500;53.268;8.308;2022-08-18T11:11:04;23.80;75.10
37658;DHT22;23500;53.268;8.308;2022-08-18T11:18:44;23.90;75.00
37658;DHT22;23500;53.268;8.308;2022-08-18T11:21:36;23.90;74.90
37658;DHT22;23500;53.268;8.308;2022-08-18T11:24:07;23.90;74.90
37658;DHT22;23500;53.268;8.308;2022-08-18T11:26:37;23.90;74.90
37658;DHT22;23500;53.268;8.308;2022-08-18T11:29:31;23.90;74.90
37658;DHT22;23500;53.268;8.308;2022-08-18T11:40:37;23.90;74.80
37658;DHT22;23500;53.268;8.308;2022-08-18T11:43:12;23.90;74.80
37658;DHT22;23500;53.268;8.308;2022-08-18T11:56:22;23.90;74.70
37658;DHT22;23500;53.268;8.308;2022-08-18T12:04:14;23.90;74.50
37658;DHT22;23500;53.268;8.308;2022-08-18T12:12:15;23.90;74.50
37658;DHT22;23500;53.268;8.308;2022-08-18T12:17:22;24.00;74.40
37658;DHT22;23500;53.268;8.308;2022-08-18T12:19:48;24.00;74.40
37658;DHT22;23500;53.268;8.308;2022-08-18T12:22:26;24.00;74.40
37658;DHT22;23500;53.268;8.308;2022-08-18T12:24:53;24.00;74.30
37658;DHT22;23500;53.268;8.308;2022-08-18T12:27:22;24.00;74.30
37658;DHT22;23500;53.268;8.308;2022-08-18T12:29:57;24.00;74.20
37658;DHT22;23500;53.268;8.308;2022-08-18T12:32:27;24.00;74.20
37658;DHT22;23500;53.268;8.308;2022-08-18T12:34:52;24.00;74.20
37658;DHT22;23500;53.268;8.308;2022-08-18T12:37:21;24.00;74.20
37658;DHT22;23500;53.268;8.308;2022-08-18T12:39:47;24.00;74.20
37658;DHT22;23500;53.268;8.308;2022-08-18T12:42:13;24.00;74.30
37658;DHT22;23500;53.268;8.308;2022-08-18T12:44:39;24.00;74.20
37658;DHT22;23500;53.268;8.308;2022-08-18T12:47:19;24.10;74.20
37658;DHT22;23500;53.268;8.308;2022-08-18T12:49:47;24.10;74.10
37658;DHT22;23500;53.268;8.308;2022-08-18T12:52:13;24.10;74.20
37658;DHT22;23500;53.268;8.308;2022-08-18T12:54:40;24.10;74.20
37658;DHT22;23500;53.268;8.308;2022-08-18T12:57:22;24.10;74.30
37658;DHT22;23500;53.268;8.308;2022-08-18T12:59:48;24.10;74.30
37658;DHT22;23500;53.268;8.308;2022-08-18T13:02:13;24.10;74.30
37658;DHT22;23500;53.268;8.308;2022-08-18T13:04:40;24.10;74.40
37658;DHT22;23500;53.268;8.308;2022-08-18T13:07:05;24.10;74.30
37658;DHT22;23500;53.268;8.308;2022-08-18T13:09:35;24.10;74.30
37658;DHT22;23500;53.268;8.308;2022-08-18T13:12:01;24.10;74.20
37658;DHT22;23500;53.268;8.308;2022-08-18T13:14:26;24.10;74.10
37658;DHT22;23500;53.268;8.308;2022-08-18T13:16:53;24.10;74.20
37658;DHT22;23500;53.268;8.308;2022-08-18T13:19:19;24.10;74.20
37658;DHT22;23500;53.268;8.308;2022-08-18T13:21:45;24.10;74.20
37658;DHT22;23500;53.268;8.308;2022-08-18T13:24:11;24.10;74.20
37658;DHT22;23500;53.268;8.308;2022-08-18T13:26:39;24.10;74.30
37658;DHT22;23500;53.268;8.308;2022-08-18T13:29:06;24.10;74.10
37658;DHT22;23500;53.268;8.308;2022-08-18T13:31:32;24.10;74.20
37658;DHT22;23500;53.268;8.308;2022-08-18T13:33:58;24.10;74.20
37658;DHT22;23500;53.268;8.308;2022-08-18T13:36:26;24.10;74.10
37658;DHT22;23500;53.268;8.308;2022-08-18T13:38:52;24.10;74.10
37658;DHT22;23500;53.268;8.308;2022-08-18T13:41:21;24.10;74.00
37658;DHT22;23500;53.268;8.308;2022-08-18T13:43:48;24.10;74.00
37658;DHT22;23500;53.268;8.308;2022-08-18T13:46:16;24.10;74.00
37658;DHT22;23500;53.268;8.308;2022-08-18T13:48:43;24.10;73.90
37658;DHT22;23500;53.268;8.308;2022-08-18T13:51:12;24.20;74.00
37658;DHT22;23500;53.268;8.308;2022-08-18T13:53:40;24.10;74.00
37658;DHT22;23500;53.268;8.308;2022-08-18T13:56:06;24.10;73.90
37658;DHT22;23500;53.268;8.308;2022-08-18T13:58:34;24.10;73.90
37658;DHT22;23500;53.268;8.308;2022-08-18T14:01:03;24.10;74.00
37658;DHT22;23500;53.268;8.308;2022-08-18T14:03:29;24.10;74.00
37658;DHT22;23500;53.268;8.308;2022-08-18T14:05:55;24.10;74.00
37658;DHT22;23500;53.268;8.308;2022-08-18T14:08:28;24.10;74.00
37658;DHT22;23500;53.268;8.308;2022-08-18T14:11:00;24.10;74.70
37658;DHT22;23500;53.268;8.308;2022-08-18T14:13:26;24.10;74.00
37658;DHT22;23500;53.268;8.308;2022-08-18T14:15:53;24.10;74.00
37658;DHT22;23500;53.268;8.308;2022-08-18T14:18:19;24.10;74.00
37658;DHT22;23500;53.268;8.308;2022-08-18T14:20:45;24.10;74.00
37658;DHT22;23500;53.268;8.308;2022-08-18T14:23:29;24.10;74.00
37658;DHT22;23500;53.268;8.308;2022-08-18T14:26:30;24.10;74.00
37658;DHT22;23500;53.268;8.308;2022-08-18T14:29:16;24.10;74.00
37658;DHT22;23500;53.268;8.308;2022-08-18T14:31:42;24.10;73.90
37658;DHT22;23500;53.268;8.308;2022-08-18T14:34:08;24.10;74.10
37658;DHT22;23500;53.268;8.308;2022-08-18T14:36:34;24.20;74.40
37658;DHT22;23500;53.268;8.308;2022-08-18T14:39:00;24.20;74.60
37658;DHT22;23500;53.268;8.308;2022-08-18T14:41:27;24.10;74.50
37658;DHT22;23500;53.268;8.308;2022-08-18T14:43:53;24.20;74.60
37658;DHT22;23500;53.268;8.308;2022-08-18T14:46:21;24.20;74.60
37658;DHT22;23500;53.268;8.308;2022-08-18T14:48:47;24.20;74.60
37658;DHT22;23500;53.268;8.308;2022-08-18T14:51:13;24.20;74.60
37658;DHT22;23500;53.268;8.308;2022-08-18T14:53:38;24.20;74.70
37658;DHT22;23500;53.268;8.308;2022-08-18T14:56:05;24.20;74.70
37658;DHT22;23500;53.268;8.308;2022-08-18T14:58:32;24.20;74.70
37658;DHT22;23500;53.268;8.308;2022-08-18T15:01:01;24.20;74.80
37658;DHT22;23500;53.268;8.308;2022-08-18T15:03:29;24.20;74.80
37658;DHT22;23500;53.268;8.308;2022-08-18T15:05:55;24.20;74.90
37658;DHT22;23500;53.268;8.308;2022-08-18T15:08:21;24.20;74.80
37658;DHT22;23500;53.268;8.308;2022-08-18T15:10:47;24.20;75.00
37658;DHT22;23500;53.268;8.308;2022-08-18T15:13:13;24.20;75.10
37658;DHT22;23500;53.268;8.308;2022-08-18T15:15:39;24.20;75.10
37658;DHT22;23500;53.268;8.308;2022-08-18T15:18:05;24.20;75.10
37658;DHT22;23500;53.268;8.308;2022-08-18T15:20:31;24.20;75.10
37658;DHT22;23500;53.268;8.308;2022-08-18T15:23:02;24.30;75.20
37658;DHT22;23500;53.268;8.308;2022-08-18T15:25:47;24.30;75.20
37658;DHT22;23500;53.268;8.308;2022-08-18T15:28:19;24.30;75.20
37658;DHT22;23500;53.268;8.308;2022-08-18T15:30:47;24.30;75.20
37658;DHT22;23500;53.268;8.308;2022-08-18T15:33:13;24.30;75.00
37658;DHT22;23500;53.268;8.308;2022-08-18T15:35:44;24.30;75.00
37658;DHT22;23500;53.268;8.308;2022-08-18T15:38:15;24.30;75.20
37658;DHT22;23500;53.268;8.308;2022-08-18T15:40:51;24.30;75.10
37658;DHT22;23500;53.268;8.308;2022-08-18T15:43:17;24.30;75.20
37658;DHT22;23500;53.268;8.308;2022-08-18T15:45:43;24.30;75.90
37658;DHT22;23500;53.268;8.308;2022-08-18T15:48:13;24.30;75.20
37658;DHT22;23500;53.268;8.308;2022-08-18T15:50:40;24.30;75.20
37658;DHT22;23500;53.268;8.308;2022-08-18T15:53:05;24.30;75.00
37658;DHT22;23500;53.268;8.308;2022-08-18T15:55:33;24.30;75.00
37658;DHT22;23500;53.268;8.308;2022-08-18T15:58:00;24.30;75.00
37658;DHT22;23500;53.268;8.308;2022-08-18T16:00:28;24.30;75.00
37658;DHT22;23500;53.268;8.308;2022-08-18T16:02:58;24.30;75.00
37658;DHT22;23500;53.268;8.308;2022-08-18T16:05:27;24.30;75.00
37658;DHT22;23500;53.268;8.308;2022-08-18T16:07:54;24.30;74.90
37658;DHT22;23500;53.268;8.308;2022-08-18T16:10:22;24.30;75.00
37658;DHT22;23500;53.268;8.308;2022-08-18T16:12:49;24.30;74.90
37658;DHT22;23500;53.268;8.308;2022-08-18T16:15:19;24.30;74.90
37658;DHT22;23500;53.268;8.308;2022-08-18T16:17:46;24.30;74.90
37658;DHT22;23500;53.268;8.308;2022-08-18T16:20:12;24.30;75.00
37658;DHT22;23500;53.268;8.308;2022-08-18T16:22:39;24.30;75.00
37658;DHT22;23500;53.268;8.308;2022-08-18T16:25:06;24.30;75.20
37658;DHT22;23500;53.268;8.308;2022-08-18T16:27:36;24.30;75.30
37658;DHT22;23500;53.268;8.308;2022-08-18T16:30:06;24.30;75.50
37658;DHT22;23500;53.268;8.308;2022-08-18T16:32:32;24.30;75.60
37658;DHT22;23500;53.268;8.308;2022-08-18T16:34:57;24.30;75.90
37658;DHT22;23500;53.268;8.308;2022-08-18T16:37:24;24.30;76.20
37658;DHT22;23500;53.268;8.308;2022-08-18T16:39:52;24.30;76.50
37658;DHT22;23500;53.268;8.308;2022-08-18T16:42:17;24.30;76.60
37658;DHT22;23500;53.268;8.308;2022-08-18T16:44:43;24.30;76.70
37658;DHT22;23500;53.268;8.308;2022-08-18T16:47:09;24.30;76.80
37658;DHT22;23500;53.268;8.308;2022-08-18T16:49:37;24.30;76.80
37658;DHT22;23500;53.268;8.308;2022-08-18T16:52:04;24.30;76.80
37658;DHT22;23500;53.268;8.308;2022-08-18T16:54:31;24.30;76.60
37658;DHT22;23500;53.268;8.308;2022-08-18T16:56:57;24.30;76.50
37658;DHT22;23500;53.268;8.308;2022-08-18T16:59:23;24.30;76.50
37658;DHT22;23500;53.268;8.308;2022-08-18T17:02:07;24.30;76.30
37658;DHT22;23500;53.268;8.308;2022-08-18T17:04:51;24.30;76.30
37658;DHT22;23500;53.268;8.308;2022-08-18T17:07:17;24.30;76.10
37658;DHT22;23500;53.268;8.308;2022-08-18T17:09:43;24.30;76.00
37658;DHT22;23500;53.268;8.308;2022-08-18T17:12:09;24.30;76.00
37658;DHT22;23500;53.268;8.308;2022-08-18T17:14:36;24.30;75.90
37658;DHT22;23500;53.268;8.308;2022-08-18T17:17:03;24.30;75.60
37658;DHT22;23500;53.268;8.308;2022-08-18T17:19:32;24.30;75.80
37658;DHT22;23500;53.268;8.308;2022-08-18T17:21:59;24.30;75.80
37658;DHT22;23500;53.268;8.308;2022-08-18T17:24:26;24.30;75.40
37658;DHT22;23500;53.268;8.308;2022-08-18T17:32:53;24.30;75.50
37658;DHT22;23500;53.268;8.308;2022-08-18T17:35:46;24.30;75.60
37658;DHT22;23500;53.268;8.308;2022-08-18T17:38:25;24.30;75.60
37658;DHT22;23500;53.268;8.308;2022-08-18T17:40:54;24.30;75.60
37658;DHT22;23500;53.268;8.308;2022-08-18T17:43:24;24.30;75.20
37658;DHT22;23500;53.268;8.308;2022-08-18T17:45:56;24.30;75.40
37658;DHT22;23500;53.268;8.308;2022-08-18T17:56:52;24.30;75.10
37658;DHT22;23500;53.268;8.308;2022-08-18T18:02:25;24.30;74.90
37658;DHT22;23500;53.268;8.308;2022-08-18T18:04:52;24.20;74.80
37658;DHT22;23500;53.268;8.308;2022-08-18T18:13:09;24.20;74.50
37658;DHT22;23500;53.268;8.308;2022-08-18T18:15:38;24.20;73.90
37658;DHT22;23500;53.268;8.308;2022-08-18T18:18:26;24.20;74.00
37658;DHT22;23500;53.268;8.308;2022-08-18T18:21:05;24.20;73.70
37658;DHT22;23500;53.268;8.308;2022-08-18T18:23:37;24.20;73.80
37658;DHT22;23500;53.268;8.308;2022-08-18T18:26:24;24.20;73.60
37658;DHT22;23500;53.268;8.308;2022-08-18T18:28:52;24.20;73.10
37658;DHT22;23500;53.268;8.308;2022-08-18T18:31:34;24.20;73.40
37658;DHT22;23500;53.268;8.308;2022-08-18T18:34:03;24.20;73.30
37658;DHT22;23500;53.268;8.308;2022-08-18T18:39:23;24.20;73.00
37658;DHT22;23500;53.268;8.308;2022-08-18T18:41:51;24.20;73.10
37658;DHT22;23500;53.268;8.308;2022-08-18T18:44:28;24.20;73.10
37658;DHT22;23500;53.268;8.308;2022-08-18T18:49:33;24.20;72.60
37658;DHT22;23500;53.268;8.308;2022-08-18T18:52:37;24.20;72.80